Time;durP1;ratioP1;P1;durP2;ratioP2;P2;SDS_P1;SDS_P2;PMS_P1;PMS_P2;Temp;Humidity;BMP_temperature;BMP_pressure;BME280_temperature;BME280_humidity;BME280_pressure;Samples;Min_cycle;Max_cycle;Signal;HPM_P1;HPM_P2
2022/05/12 00:03:09;;;;;;;0.30;0.30;;;;;;;13.38;72.29;101241.25;10506590;28;20048;-79
2022/05/12 00:08:12;;;;;;;0.00;0.00;;;;;;;13.21;72.44;101246.97;10495196;28;20060;-77
2022/05/12 00:13:14;;;;;;;0.00;0.00;;;;;;;13.18;72.09;101250.34;10495092;28;20056;-78
2022/05/12 00:18:15;;;;;;;0.10;0.10;;;;;;;13.05;72.11;101266.47;10496159;28;20052;-79
2022/05/12 00:23:28;;;;;;;0.00;0.00;;;;;;;13.05;72.08;101281.13;10514067;28;20078;-78
2022/05/12 00:28:29;;;;;;;0.43;0.20;;;;;;;12.81;72.45;101287.47;10492120;28;20136;-80
2022/05/12 00:33:31;;;;;;;0.00;0.00;;;;;;;12.77;72.52;101294.28;10495194;28;20052;-79
2022/05/12 00:38:32;;;;;;;0.10;0.10;;;;;;;12.67;72.65;101308.72;10493930;28;20122;-79
2022/05/12 00:43:53;;;;;;;0.22;0.22;;;;;;;12.63;72.39;101312.06;10495186;28;20064;-79
2022/05/12 00:49:03;;;;;;;0.00;0.00;;;;;;;12.51;72.95;101319.53;10494583;28;20071;-78
2022/05/12 00:54:11;;;;;;;0.10;0.10;;;;;;;12.31;73.25;101327.66;10507318;28;20063;-79
2022/05/12 00:59:26;;;;;;;0.00;0.00;;;;;;;12.35;72.89;101328.63;10534550;28;20553;-78
2022/05/12 01:04:31;;;;;;;0.00;0.00;;;;;;;12.29;72.97;101337.06;10511145;28;20040;-79
2022/05/12 01:09:32;;;;;;;0.00;0.00;;;;;;;12.05;73.12;101339.91;10494364;28;20079;-79
2022/05/12 01:14:34;;;;;;;1.88;0.63;;;;;;;12.11;73.50;101352.06;10510799;28;20055;-78
2022/05/12 01:19:39;;;;;;;0.00;0.00;;;;;;;12.06;73.08;101355.44;10533836;28;20048;-78
2022/05/12 01:24:45;;;;;;;0.00;0.00;;;;;;;11.90;73.55;101368.69;10515820;28;20102;-78
2022/05/12 01:29:53;;;;;;;0.00;0.00;;;;;;;11.79;73.76;101376.16;10510413;28;20110;-78
2022/05/12 01:34:55;;;;;;;0.32;0.20;;;;;;;11.58;74.42;101376.38;10511503;28;20086;-78
2022/05/12 01:39:57;;;;;;;0.00;0.00;;;;;;;11.53;74.53;101378.88;10533653;28;20093;-78
2022/05/12 01:44:59;;;;;;;0.00;0.00;;;;;;;11.55;74.26;101382.34;10516438;28;20049;-78
2022/05/12 01:50:00;;;;;;;0.00;0.00;;;;;;;11.55;74.00;101391.81;10491474;28;20106;-79
2022/05/12 01:55:03;;;;;;;0.00;0.00;;;;;;;11.42;74.00;101409.50;10513561;28;20060;-79
2022/05/12 02:00:06;;;;;;;0.00;0.00;;;;;;;11.31;74.72;101408.28;10534517;28;20052;-78
2022/05/12 02:05:11;;;;;;;0.00;0.00;;;;;;;11.16;74.08;101424.19;10504151;28;20117;-78
2022/05/12 02:10:19;;;;;;;0.00;0.00;;;;;;;11.08;74.97;101431.66;10507690;28;20056;-78
2022/05/12 02:15:21;;;;;;;0.00;0.00;;;;;;;10.92;75.34;101434.53;10512843;28;20134;-78
2022/05/12 02:20:23;;;;;;;0.00;0.00;;;;;;;10.90;75.15;101434.50;10531953;28;20052;-78
2022/05/12 02:25:25;;;;;;;0.00;0.00;;;;;;;10.61;75.14;101444.72;10526543;28;20048;-78
2022/05/12 02:30:29;;;;;;;0.25;0.15;;;;;;;10.38;76.97;101454.22;10490860;28;20067;-79
2022/05/12 02:35:31;;;;;;;0.00;0.00;;;;;;;10.52;75.85;101459.84;10512893;28;20125;-78
2022/05/12 02:40:33;;;;;;;0.00;0.00;;;;;;;10.58;76.01;101472.06;10534312;28;20499;-78
2022/05/12 02:45:34;;;;;;;0.00;0.00;;;;;;;10.85;76.07;101468.69;10511490;28;20056;-78
2022/05/12 02:50:36;;;;;;;0.00;0.00;;;;;;;10.64;76.25;101477.44;10497093;28;20045;-78
2022/05/12 02:55:38;;;;;;;0.00;0.00;;;;;;;10.60;76.32;101488.47;10521283;28;20095;-78
2022/05/12 03:00:41;;;;;;;0.00;0.00;;;;;;;10.51;76.78;101493.28;10539617;28;20045;-78
2022/05/12 03:05:44;;;;;;;0.00;0.00;;;;;;;10.54;76.50;101496.84;10516203;28;20071;-78
2022/05/12 03:10:48;;;;;;;0.00;0.00;;;;;;;10.78;75.38;101494.25;10498642;28;20117;-78
2022/05/12 03:15:51;;;;;;;0.00;0.00;;;;;;;10.64;74.79;101495.47;10523336;28;20482;-78
2022/05/12 03:20:53;;;;;;;0.63;0.63;;;;;;;10.14;75.25;101498.81;10513877;28;20316;-78
2022/05/12 03:25:57;;;;;;;0.00;0.00;;;;;;;9.88;75.53;101509.81;10538047;28;20097;-78
2022/05/12 03:31:00;;;;;;;0.00;0.00;;;;;;;10.00;76.88;101510.31;10538187;28;20234;-77
2022/05/12 03:36:02;;;;;;;0.00;0.00;;;;;;;9.98;79.22;101507.66;10518171;28;20150;-78
2022/05/12 03:41:06;;;;;;;0.00;0.00;;;;;;;10.32;77.96;101520.91;10534615;28;20051;-78
2022/05/12 03:46:08;;;;;;;0.00;0.00;;;;;;;10.25;78.26;101518.94;10533897;28;20068;-77
2022/05/12 03:51:10;;;;;;;0.00;0.00;;;;;;;10.11;79.25;101532.16;10495639;28;20049;-77
2022/05/12 03:56:11;;;;;;;0.03;0.03;;;;;;;10.40;77.95;101540.13;10498951;28;20114;-78
2022/05/12 04:01:13;;;;;;;0.00;0.00;;;;;;;10.55;77.39;101549.25;10496072;28;20102;-78
2022/05/12 04:06:15;;;;;;;0.00;0.00;;;;;;;10.31;77.16;101552.66;10536138;28;20058;-77
2022/05/12 04:11:17;;;;;;;0.00;0.00;;;;;;;10.20;78.07;101559.09;10537130;28;20048;-78
2022/05/12 04:16:19;;;;;;;0.00;0.00;;;;;;;10.42;77.96;101566.84;10510810;28;20574;-77
2022/05/12 04:21:21;;;;;;;0.00;0.00;;;;;;;10.48;76.48;101572.22;10505733;28;20519;-78
2022/05/12 04:26:23;;;;;;;0.00;0.00;;;;;;;10.25;77.73;101568.75;10522453;28;20515;-77
2022/05/12 04:31:24;;;;;;;0.00;0.00;;;;;;;10.26;79.61;101580.81;10535587;28;20105;-77
2022/05/12 04:36:27;;;;;;;0.00;0.00;;;;;;;10.32;79.83;101587.88;10528768;28;20056;-77
2022/05/12 04:41:30;;;;;;;0.00;0.00;;;;;;;10.45;79.88;101587.56;10503889;28;20056;-77
2022/05/12 04:46:34;;;;;;;0.00;0.00;;;;;;;10.72;79.57;101597.13;10536136;28;20055;-77
2022/05/12 04:51:37;;;;;;;0.00;0.00;;;;;;;10.93;79.21;101603.88;10535421;28;20044;-78
2022/05/12 04:56:40;;;;;;;0.00;0.00;;;;;;;11.02;78.62;101611.94;10536779;28;20059;-78
2022/05/12 05:01:42;;;;;;;0.00;0.00;;;;;;;11.04;79.18;101617.16;10532408;28;20502;-77
2022/05/12 05:06:44;;;;;;;0.00;0.00;;;;;;;11.18;78.99;101617.63;10532965;28;20102;-77
2022/05/12 05:11:46;;;;;;;0.00;0.00;;;;;;;11.41;78.47;101631.31;10531922;28;20040;-78
2022/05/12 05:16:48;;;;;;;0.00;0.00;;;;;;;11.60;77.70;101632.81;10534531;28;20052;-78
2022/05/12 05:21:50;;;;;;;0.00;0.00;;;;;;;11.74;77.99;101647.06;10512714;28;20052;-79
2022/05/12 05:26:52;;;;;;;0.00;0.00;;;;;;;11.79;77.96;101656.69;10533526;28;20064;-77
2022/05/12 05:31:53;;;;;;;0.00;0.00;;;;;;;12.18;77.00;101654.53;10493346;28;20090;-78
2022/05/12 05:37:02;;;;;;;0.30;0.30;;;;;;;12.32;76.30;101657.53;10523605;28;20060;-79
2022/05/12 05:42:17;;;;;;;0.00;0.00;;;;;;;12.32;76.36;101667.84;10505529;28;20057;-79
2022/05/12 05:47:19;;;;;;;0.00;0.00;;;;;;;12.62;76.50;101674.78;10524745;28;20068;-80
2022/05/12 05:57:43;;;;;;;0.00;0.00;;;;;;;13.07;75.46;101691.63;10500367;28;20076;-81
2022/05/12 06:02:46;;;;;;;0.00;0.00;;;;;;;13.16;74.32;101706.50;10514950;28;20088;-80
2022/05/12 06:07:47;;;;;;;0.00;0.00;;;;;;;13.38;74.11;101710.63;10527933;28;20052;-81
2022/05/12 06:12:49;;;;;;;0.43;0.32;;;;;;;13.32;72.96;101716.44;10480550;28;20119;-80
2022/05/12 06:17:52;;;;;;;0.00;0.00;;;;;;;13.68;72.88;101721.72;10528125;28;20416;-81
2022/05/12 06:22:54;;;;;;;0.00;0.00;;;;;;;13.89;72.99;101729.19;10515625;28;20048;-81
2022/05/12 06:27:55;;;;;;;0.30;0.30;;;;;;;14.05;71.18;101733.91;10536230;28;20052;-80
2022/05/12 06:32:57;;;;;;;0.00;0.00;;;;;;;14.11;71.30;101734.06;10524675;28;20059;-80
2022/05/12 06:37:59;;;;;;;0.10;0.10;;;;;;;14.13;70.18;101741.88;10521943;28;20048;-81
2022/05/12 06:43:04;;;;;;;0.17;0.17;;;;;;;14.58;69.97;101746.41;10534423;28;20048;-81
2022/05/12 06:48:07;;;;;;;0.00;0.00;;;;;;;15.03;67.95;101751.72;10539979;28;20052;-81
2022/05/12 06:53:09;;;;;;;0.05;0.05;;;;;;;15.48;66.29;101750.03;10535838;28;20458;-81
2022/05/12 06:58:11;;;;;;;0.47;0.20;;;;;;;15.76;65.80;101759.19;10540235;28;20122;-81
2022/05/12 07:03:16;;;;;;;0.00;0.00;;;;;;;16.15;64.96;101768.56;10536875;28;20547;-82
2022/05/12 07:08:18;;;;;;;0.38;0.20;;;;;;;16.11;63.63;101760.69;10538498;28;20079;-81
2022/05/12 07:13:21;;;;;;;0.00;0.00;;;;;;;16.70;62.88;101772.00;10538198;28;20052;-81
2022/05/12 07:18:22;;;;;;;0.00;0.00;;;;;;;16.91;61.24;101766.22;10535449;28;20125;-81
2022/05/12 07:29:03;;;;;;;0.00;0.00;;;;;;;16.98;61.01;101768.09;10512236;28;20418;-81
2022/05/12 07:34:05;;;;;;;0.20;0.20;;;;;;;17.37;59.72;101769.44;10520914;28;20048;-82
2022/05/12 07:39:07;;;;;;;0.20;0.20;;;;;;;17.01;59.10;101783.75;10536387;28;20098;-82
2022/05/12 07:44:10;;;;;;;0.00;0.00;;;;;;;17.44;57.51;101784.28;10528998;28;20056;-82
2022/05/12 07:49:13;;;;;;;0.00;0.00;;;;;;;17.50;56.67;101790.41;10507926;28;20105;-81
2022/05/12 07:54:46;;;;;;;0.00;0.00;;;;;;;17.93;56.12;101780.44;10523494;28;20127;-82
2022/05/12 07:59:47;;;;;;;0.35;0.35;;;;;;;18.06;55.43;101784.06;10514117;28;20082;-82
2022/05/12 08:04:51;;;;;;;0.17;0.17;;;;;;;18.17;54.15;101798.06;10520680;28;20061;-82
2022/05/12 08:09:53;;;;;;;0.85;0.85;;;;;;;17.70;52.59;101814.94;10513244;28;20068;-83
2022/05/12 08:14:55;;;;;;;0.00;0.00;;;;;;;18.19;52.36;101805.91;10519625;28;20059;-81
2022/05/12 08:19:57;;;;;;;0.10;0.10;;;;;;;17.98;51.77;101817.91;10535557;28;20094;-81
2022/05/12 08:24:59;;;;;;;0.20;0.20;;;;;;;18.03;51.95;101811.00;10489149;28;20052;-81
2022/05/12 08:30:01;;;;;;;0.13;0.13;;;;;;;17.95;53.46;101825.69;10513618;28;20109;-81
2022/05/12 08:35:04;;;;;;;0.00;0.00;;;;;;;18.01;51.10;101823.13;10534883;28;20056;-81
2022/05/12 08:40:11;;;;;;;0.63;0.20;;;;;;;18.53;48.64;101825.31;10535807;28;20454;-82
2022/05/12 08:45:18;;;;;;;0.10;0.10;;;;;;;18.43;49.86;101830.47;10529699;28;20056;-81
2022/05/12 08:50:27;;;;;;;0.28;0.15;;;;;;;18.89;48.32;101825.53;10535208;28;20043;-81
2022/05/12 08:55:30;;;;;;;0.00;0.00;;;;;;;18.87;47.45;101824.69;10530308;28;20094;-82
2022/05/12 09:00:49;;;;;;;0.00;0.00;;;;;;;19.78;46.24;101824.19;10500994;28;20044;-82
2022/05/12 09:06:02;;;;;;;0.10;0.10;;;;;;;20.16;46.02;101826.03;10499605;28;20512;-82
2022/05/12 09:11:18;;;;;;;0.30;0.30;;;;;;;18.09;44.62;101831.03;10498893;28;20055;-80
2022/05/12 09:16:25;;;;;;;0.80;0.15;;;;;;;18.83;45.71;101830.72;10535871;28;20052;-81
2022/05/12 09:21:35;;;;;;;0.13;0.13;;;;;;;18.35;46.79;101844.31;10529165;28;20117;-80
2022/05/12 09:26:39;;;;;;;0.00;0.00;;;;;;;18.07;44.63;101849.25;10537020;28;20055;-80
2022/05/12 09:31:47;;;;;;;0.00;0.00;;;;;;;19.17;45.87;101857.09;10514299;28;20055;-81
2022/05/12 09:36:49;;;;;;;0.30;0.20;;;;;;;19.20;44.23;101836.19;10532308;28;20036;-80
2022/05/12 09:41:51;;;;;;;0.30;0.30;;;;;;;18.22;45.25;101843.31;10534394;28;20507;-81
2022/05/12 09:47:02;;;;;;;0.00;0.00;;;;;;;19.31;41.31;101847.59;10532192;28;20044;-80
2022/05/12 09:52:31;;;;;;;0.10;0.00;;;;;;;19.72;43.15;101839.88;10529105;28;20040;-81
2022/05/12 09:57:35;;;;;;;0.00;0.00;;;;;;;19.10;44.35;101831.81;10535554;28;20580;-80
2022/05/12 10:08:20;;;;;;;0.00;0.00;;;;;;;19.36;43.50;101825.81;10539573;28;20130;-81
2022/05/12 10:13:46;;;;;;;0.17;0.17;;;;;;;19.00;45.85;101826.53;10540178;28;20044;-81
2022/05/12 10:19:14;;;;;;;0.10;0.10;;;;;;;18.41;43.03;101825.22;10539441;28;20063;-81
2022/05/12 10:24:57;;;;;;;0.00;0.00;;;;;;;19.08;43.39;101823.09;10540079;28;20035;-80
2022/05/12 10:30:19;;;;;;;0.05;0.03;;;;;;;19.32;42.85;101831.00;10529289;28;20082;-81
2022/05/12 10:35:32;;;;;;;0.00;0.00;;;;;;;20.01;40.86;101834.75;10539366;28;20141;-81
2022/05/12 10:40:44;;;;;;;0.00;0.00;;;;;;;19.91;39.76;101839.09;10539800;28;20048;-80
2022/05/12 10:46:13;;;;;;;0.00;0.00;;;;;;;19.72;41.17;101830.31;10525841;28;20392;-81
2022/05/12 10:51:37;;;;;;;0.40;0.38;;;;;;;19.32;40.74;101820.56;10526798;28;20135;-81
2022/05/12 10:56:41;;;;;;;0.20;0.20;;;;;;;19.55;38.80;101835.47;10553324;28;20457;-80
2022/05/12 11:01:52;;;;;;;0.00;0.00;;;;;;;19.55;41.57;101825.00;10539175;28;20060;-80
2022/05/12 11:07:04;;;;;;;0.15;0.15;;;;;;;18.55;39.54;101835.75;10540945;28;20502;-82
2022/05/12 11:12:23;;;;;;;0.13;0.13;;;;;;;20.13;37.99;101819.06;10535875;28;20442;-81
2022/05/12 11:17:35;;;;;;;0.40;0.15;;;;;;;19.82;36.36;101820.75;10537117;28;20059;-82
2022/05/12 11:22:40;;;;;;;0.05;0.05;;;;;;;19.82;36.79;101818.13;10534043;28;20052;-81
2022/05/12 11:29:41;;;;;;;0.08;0.08;;;;;;;20.51;39.58;101821.66;10538662;28;20056;-81
2022/05/12 11:33:25;;;;;;;0.00;0.00;;;;;;;20.05;38.65;101812.09;10515862;28;20044;-80
2022/05/12 11:38:42;;;;;;;;;;;;;;;20.03;37.51;101813.81;10507700;28;20048;-80
2022/05/12 11:49:24;;;;;;;8.57;1.75;;;;;;;19.18;36.32;101817.03;10534860;28;20087;-79
2022/05/12 11:54:39;;;;;;;;;;;;;;;19.97;36.83;101810.34;10538924;28;20510;-79
2022/05/12 11:59:41;;;;;;;0.00;0.00;;;;;;;19.43;37.54;101817.13;10538295;28;20242;-81
2022/05/12 12:04:47;;;;;;;0.35;0.22;;;;;;;19.95;36.49;101816.44;10511328;28;20045;-80
2022/05/12 12:09:53;;;;;;;0.00;0.00;;;;;;;20.17;35.07;101806.00;10507397;28;20427;-80
2022/05/12 12:14:58;;;;;;;0.25;0.17;;;;;;;20.51;35.52;101806.84;10520337;28;20056;-80
2022/05/12 12:20:29;;;;;;;0.00;0.00;;;;;;;20.52;33.11;101808.56;10537630;28;20048;-81
2022/05/12 12:25:36;;;;;;;0.00;0.00;;;;;;;20.83;35.02;101797.22;10525448;28;20542;-81
2022/05/12 12:30:47;;;;;;;0.00;0.00;;;;;;;20.67;33.78;101801.56;10495734;28;20102;-80
2022/05/12 12:36:08;;;;;;;0.00;0.00;;;;;;;20.58;33.67;101798.13;10534915;28;20083;-80
2022/05/12 12:41:11;;;;;;;;;;;;;;;20.29;34.81;101804.22;10484490;28;20045;-80
2022/05/12 12:46:26;;;;;;;0.10;0.10;;;;;;;20.66;33.00;101792.84;10533737;28;19924;-81
2022/05/12 12:51:31;;;;;;;0.75;0.30;;;;;;;20.36;34.38;101802.50;10534712;28;20048;-80
2022/05/12 12:56:35;;;;;;;0.00;0.00;;;;;;;19.77;36.58;101798.94;10535257;28;20048;-80
2022/05/12 13:01:50;;;;;;;0.00;0.00;;;;;;;19.83;34.01;101791.09;10509646;28;20050;-79
2022/05/12 13:06:55;;;;;;;0.00;0.00;;;;;;;20.42;34.17;101792.00;10511556;28;20521;-80
2022/05/12 13:12:09;;;;;;;0.52;0.52;;;;;;;19.84;35.56;101782.44;10509458;28;20051;-80
2022/05/12 13:17:37;;;;;;;0.90;0.25;;;;;;;20.44;35.25;101774.56;10536302;28;20064;-80
2022/05/12 13:22:46;;;;;;;0.00;0.00;;;;;;;20.54;34.46;101780.66;10528615;28;20867;-79
2022/05/12 13:27:49;;;;;;;0.00;0.00;;;;;;;20.55;33.34;101777.16;10501727;28;20407;-80
2022/05/12 13:33:02;;;;;;;0.00;0.00;;;;;;;20.44;33.67;101769.34;10494718;28;20051;-80
2022/05/12 13:38:13;;;;;;;0.00;0.00;;;;;;;20.90;34.40;101763.13;10493348;28;20118;-80
2022/05/12 13:43:26;;;;;;;0.00;0.00;;;;;;;21.26;35.80;101770.00;10493681;28;20060;-79
2022/05/12 13:48:27;;;;;;;0.00;0.00;;;;;;;20.63;34.21;101764.06;10492669;28;20134;-79
2022/05/12 13:53:46;;;;;;;0.30;0.30;;;;;;;20.51;34.03;101753.63;10500125;28;20106;-79
2022/05/12 13:58:51;;;;;;;0.27;0.27;;;;;;;20.36;33.33;101749.28;10497697;28;20484;-79
2022/05/12 14:04:09;;;;;;;0.00;0.00;;;;;;;20.73;34.30;101746.63;10521857;28;20105;-80
2022/05/12 14:09:35;;;;;;;0.10;0.10;;;;;;;20.55;35.16;101745.75;10539830;28;20082;-80
2022/05/12 14:20:25;;;;;;;0.17;0.03;;;;;;;20.48;33.11;101744.03;10539631;28;20395;-79
2022/05/12 14:25:29;;;;;;;0.00;0.00;;;;;;;21.37;35.14;101731.47;10527539;28;20044;-80
2022/05/12 14:30:31;;;;;;;0.10;0.10;;;;;;;19.94;33.98;101744.94;10536660;28;20060;-79
2022/05/12 14:35:33;;;;;;;0.00;0.00;;;;;;;20.22;35.26;101731.84;10535801;28;20075;-80
2022/05/12 14:40:34;;;;;;;0.00;0.00;;;;;;;20.89;35.28;101726.47;10534861;28;20173;-80
2022/05/12 14:45:36;;;;;;;0.10;0.10;;;;;;;20.85;34.27;101720.38;10539643;28;20445;-80
2022/05/12 14:50:38;;;;;;;0.00;0.00;;;;;;;21.44;31.97;101706.97;10543685;28;20048;-80
2022/05/12 14:55:41;;;;;;;0.15;0.15;;;;;;;21.16;32.90;101721.97;10546339;28;20560;-80
2022/05/12 15:00:43;;;;;;;0.03;0.03;;;;;;;20.90;33.04;101710.75;10544952;28;20040;-78
2022/05/12 15:05:45;;;;;;;0.20;0.20;;;;;;;20.90;31.52;101708.13;10546598;28;20055;-79
2022/05/12 15:10:48;;;;;;;0.10;0.10;;;;;;;21.28;33.20;101697.47;10546968;28;20518;-79
2022/05/12 15:15:51;;;;;;;0.00;0.00;;;;;;;20.34;34.41;101709.16;10539318;28;20056;-79
2022/05/12 15:20:52;;;;;;;0.00;0.00;;;;;;;20.28;33.25;101704.81;10496504;28;20044;-79
2022/05/12 15:25:58;;;;;;;0.10;0.10;;;;;;;20.03;34.22;101698.72;10502370;28;20087;-80
2022/05/12 15:31:00;;;;;;;0.10;0.10;;;;;;;20.47;32.57;101691.69;10529753;28;20098;-80
2022/05/12 15:36:02;;;;;;;0.00;0.00;;;;;;;20.03;34.18;101703.97;10541332;28;20098;-81
2022/05/12 15:41:04;;;;;;;0.00;0.00;;;;;;;20.15;33.64;101703.94;10543306;28;20052;-79
2022/05/12 15:46:16;;;;;;;0.00;0.00;;;;;;;20.37;37.29;101703.91;10546156;28;20127;-79
2022/05/12 15:51:20;;;;;;;0.20;0.20;;;;;;;20.85;34.90;101699.44;10544760;28;20044;-80
2022/05/12 15:56:22;;;;;;;0.10;0.10;;;;;;;20.75;33.61;101689.88;10535659;28;20490;-79
2022/05/12 16:01:23;;;;;;;0.25;0.20;;;;;;;20.16;33.37;101695.22;10537873;28;20486;-79
2022/05/12 16:06:26;;;;;;;0.00;0.00;;;;;;;20.56;35.69;101691.63;10540805;28;20060;-80
2022/05/12 16:12:13;;;;;;;0.45;0.35;;;;;;;20.43;32.60;101683.84;10558987;28;20106;-79
2022/05/12 16:16:55;;;;;;;0.00;0.00;;;;;;;20.95;34.69;101676.69;10544653;28;20056;-79
2022/05/12 16:21:57;;;;;;;0.20;0.20;;;;;;;20.11;33.76;101683.91;10532901;28;20044;-80
2022/05/12 16:27:04;;;;;;;0.00;0.00;;;;;;;20.06;34.66;101680.44;10542650;28;20105;-80
2022/05/12 16:32:08;;;;;;;0.00;0.00;;;;;;;19.72;34.67;101672.56;10541724;28;20052;-79
2022/05/12 16:37:11;;;;;;;0.00;0.00;;;;;;;20.11;35.79;101673.44;10541889;28;20086;-79
2022/05/12 16:42:13;;;;;;;0.08;0.05;;;;;;;20.12;35.24;101667.34;10541247;28;20051;-80
2022/05/12 16:47:14;;;;;;;0.05;0.00;;;;;;;20.16;33.62;101655.97;10541691;28;20106;-80
2022/05/12 16:52:16;;;;;;;1.65;1.55;;;;;;;20.16;34.18;101657.75;10543995;28;20056;-80
2022/05/12 16:57:19;;;;;;;0.28;0.10;;;;;;;20.01;35.37;101658.63;10542478;28;20052;-79
2022/05/12 17:02:41;;;;;;;0.00;0.00;;;;;;;19.87;35.51;101654.28;10540082;28;20479;-80
2022/05/12 17:07:44;;;;;;;0.00;0.00;;;;;;;20.19;35.38;101648.16;10539239;28;20117;-79
2022/05/12 17:12:46;;;;;;;0.00;0.00;;;;;;;20.13;37.65;101648.16;10539744;28;20521;-78
2022/05/12 17:17:51;;;;;;;0.10;0.10;;;;;;;19.92;35.67;101651.66;10542198;28;20131;-79
2022/05/12 17:22:53;;;;;;;0.17;0.17;;;;;;;19.77;35.83;101647.31;10539988;28;20048;-79
2022/05/12 17:27:54;;;;;;;0.00;0.00;;;;;;;19.97;35.26;101642.97;10542444;28;20079;-77
2022/05/12 17:32:56;;;;;;;0.20;0.17;;;;;;;19.75;37.26;101647.28;10539900;28;20044;-80
2022/05/12 17:38:04;;;;;;;0.00;0.00;;;;;;;19.80;37.08;101650.78;10540927;28;20067;-81
2022/05/12 17:43:05;;;;;;;0.00;0.00;;;;;;;19.89;38.16;101651.66;10542918;28;20102;-80
2022/05/12 17:48:07;;;;;;;0.00;0.00;;;;;;;19.62;38.79;101640.31;10544330;28;20056;-80
2022/05/12 17:53:09;;;;;;;0.00;0.00;;;;;;;19.41;38.53;101651.63;10543009;28;20468;-80
2022/05/12 17:58:17;;;;;;;0.10;0.10;;;;;;;18.88;39.13;101661.91;10543028;28;20117;-80
2022/05/12 18:03:20;;;;;;;0.00;0.00;;;;;;;18.74;40.51;101655.78;10529751;28;20079;-80
2022/05/12 18:08:24;;;;;;;0.00;0.00;;;;;;;18.80;40.86;101642.78;10496611;28;20497;-81
2022/05/12 18:13:25;;;;;;;0.00;0.00;;;;;;;18.61;40.70;101642.69;10496698;28;20563;-81
2022/05/12 18:18:27;;;;;;;0.00;0.00;;;;;;;18.45;41.76;101660.00;10525675;28;20113;-80
2022/05/12 18:23:29;;;;;;;11.80;0.82;;;;;;;18.23;42.08;101659.00;10546544;28;20047;-81
2022/05/12 18:28:30;;;;;;;0.00;0.00;;;;;;;18.07;42.88;101651.09;10546574;28;20052;-81
2022/05/12 18:33:32;;;;;;;0.00;0.00;;;;;;;18.02;42.88;101647.59;10546055;28;20044;-81
2022/05/12 18:38:36;;;;;;;0.00;0.00;;;;;;;18.01;45.85;101651.03;10545867;28;20056;-82
2022/05/12 18:43:38;;;;;;;0.00;0.00;;;;;;;17.91;45.04;101657.00;10546167;28;20101;-81
2022/05/12 18:48:42;;;;;;;0.38;0.38;;;;;;;17.76;44.66;101650.81;10544578;28;20082;-82
2022/05/12 18:53:43;;;;;;;0.00;0.00;;;;;;;17.44;47.97;101648.84;10528718;28;20051;-82
2022/05/12 18:58:45;;;;;;;0.00;0.00;;;;;;;17.64;47.81;101670.72;10485780;28;20060;-82
2022/05/12 19:03:49;;;;;;;0.00;0.00;;;;;;;17.37;46.03;101672.19;10523872;28;20048;-82
2022/05/12 19:08:51;;;;;;;0.20;0.20;;;;;;;17.35;46.10;101676.53;10545572;28;20411;-81
2022/05/12 19:14:31;;;;;;;0.00;0.00;;;;;;;17.11;48.33;101675.41;10528637;28;20052;-80
2022/05/12 19:19:32;;;;;;;0.00;0.00;;;;;;;16.83;46.62;101693.25;10502408;28;20415;-79
2022/05/12 19:24:34;;;;;;;0.00;0.00;;;;;;;16.52;47.79;101704.97;10505376;28;20040;-79
2022/05/12 19:29:36;;;;;;;0.00;0.00;;;;;;;16.41;47.33;101712.63;10502084;28;20126;-80
2022/05/12 19:34:38;;;;;;;0.00;0.00;;;;;;;16.11;48.27;101711.31;10524808;28;20048;-80
2022/05/12 19:39:39;;;;;;;0.00;0.00;;;;;;;15.88;48.42;101724.78;10544217;28;20052;-80
2022/05/12 19:44:41;;;;;;;0.00;0.00;;;;;;;15.93;48.77;101736.16;10561226;28;20044;-81
2022/05/12 19:49:46;;;;;;;0.00;0.00;;;;;;;15.90;48.84;101735.22;10543620;28;20044;-81
2022/05/12 19:54:47;;;;;;;0.00;0.00;;;;;;;15.62;50.16;101734.69;10518643;28;20059;-80
2022/05/12 19:59:49;;;;;;;0.00;0.00;;;;;;;15.48;50.48;101737.91;10501623;28;20053;-81
2022/05/12 20:04:51;;;;;;;0.00;0.00;;;;;;;15.62;50.23;101739.88;10525256;28;20044;-81
2022/05/12 20:09:53;;;;;;;0.00;0.00;;;;;;;15.36;51.57;101741.16;10541359;28;20063;-81
2022/05/12 20:14:54;;;;;;;0.00;0.00;;;;;;;15.43;51.50;101744.75;10542601;28;20507;-81
2022/05/12 20:19:56;;;;;;;0.00;0.00;;;;;;;15.28;52.07;101740.09;10523608;28;20059;-80
2022/05/12 20:24:58;;;;;;;0.00;0.00;;;;;;;15.28;51.66;101749.63;10549382;28;20522;-80
2022/05/12 20:30:04;;;;;;;0.00;0.00;;;;;;;15.12;53.16;101759.69;10539927;28;20048;-80
2022/05/12 20:35:17;;;;;;;0.00;0.00;;;;;;;15.28;52.30;101758.28;10533815;28;20098;-80
2022/05/12 20:40:21;;;;;;;0.20;0.20;;;;;;;15.20;52.28;101758.16;10539202;28;20052;-80
2022/05/12 20:50:46;;;;;;;0.00;0.00;;;;;;;15.21;51.71;101764.19;10538691;28;20067;-79
2022/05/12 20:55:48;;;;;;;0.00;0.00;;;;;;;15.19;51.91;101755.53;10539282;28;20036;-79
2022/05/12 21:00:51;;;;;;;0.00;0.00;;;;;;;15.13;51.96;101771.84;10537479;28;20051;-80
2022/05/12 21:05:53;;;;;;;0.00;0.00;;;;;;;15.01;52.12;101766.38;10539373;28;20062;-79
2022/05/12 21:10:55;;;;;;;0.00;0.00;;;;;;;14.97;51.89;101770.63;10537686;28;20469;-79
2022/05/12 21:16:02;;;;;;;0.00;0.00;;;;;;;14.87;51.49;101779.06;10537121;28;20145;-79
2022/05/12 21:21:04;;;;;;;0.00;0.00;;;;;;;14.78;51.32;101774.53;10518061;28;20059;-80
2022/05/12 21:26:10;;;;;;;0.00;0.00;;;;;;;14.71;52.03;101778.72;10535654;28;20040;-79
2022/05/12 21:31:13;;;;;;;0.00;0.00;;;;;;;14.55;52.75;101781.75;10542940;28;20048;-80
2022/05/12 21:36:14;;;;;;;0.00;0.00;;;;;;;14.56;51.74;101779.19;10536980;28;20052;-79
2022/05/12 21:41:16;;;;;;;0.00;0.00;;;;;;;14.52;51.98;101777.38;10536476;28;20138;-80
2022/05/12 21:46:18;;;;;;;0.00;0.00;;;;;;;14.46;52.94;101777.25;10537295;28;20056;-80
2022/05/12 21:51:19;;;;;;;0.00;0.00;;;;;;;14.07;54.83;101772.81;10533542;28;20056;-77
2022/05/12 21:56:24;;;;;;;0.00;0.00;;;;;;;14.05;55.98;101769.31;10520759;28;20057;-76
2022/05/12 22:01:29;;;;;;;0.00;0.00;;;;;;;13.70;56.59;101769.25;10503919;28;20568;-76
2022/05/12 22:06:45;;;;;;;0.00;0.00;;;;;;;13.47;56.59;101770.41;10530767;28;20063;-77
2022/05/12 22:17:17;;;;;;;0.08;0.08;;;;;;;12.96;59.80;101768.91;10537858;28;20052;-77
2022/05/12 22:22:19;;;;;;;0.00;0.00;;;;;;;13.24;58.90;101756.75;10537327;28;20484;-77
2022/05/12 22:27:20;;;;;;;0.00;0.00;;;;;;;13.21;59.25;101769.63;10537808;28;20052;-76
2022/05/12 22:32:22;;;;;;;0.00;0.00;;;;;;;12.99;59.04;101766.38;10538598;28;20074;-77
2022/05/12 22:37:25;;;;;;;0.00;0.00;;;;;;;12.76;59.52;101772.59;10538910;28;20087;-77
2022/05/12 22:42:26;;;;;;;0.00;0.00;;;;;;;12.83;59.09;101775.41;10506465;22;20077;-77
2022/05/12 22:47:29;;;;;;;0.00;0.00;;;;;;;12.50;59.43;101765.78;10451088;28;20087;-76
2022/05/12 22:52:31;;;;;;;0.00;0.00;;;;;;;12.58;58.51;101768.59;10487751;28;20549;-77
2022/05/12 22:57:32;;;;;;;0.00;0.00;;;;;;;12.83;56.60;101765.06;10508507;28;20165;-78
2022/05/12 23:02:34;;;;;;;0.00;0.00;;;;;;;12.75;56.33;101771.69;10482085;28;20053;-76
2022/05/12 23:07:38;;;;;;;0.00;0.00;;;;;;;12.60;56.67;101766.06;10439193;28;20412;-77
2022/05/12 23:12:40;;;;;;;2.17;1.05;;;;;;;12.56;57.34;101757.31;10495155;28;20047;-77
2022/05/12 23:17:41;;;;;;;0.00;0.00;;;;;;;12.57;56.86;101761.66;10481423;28;20443;-77
2022/05/12 23:22:43;;;;;;;0.00;0.00;;;;;;;12.56;57.18;101754.75;10497127;28;20457;-76
2022/05/12 23:27:45;;;;;;;0.00;0.00;;;;;;;12.48;57.10;101751.94;10498154;28;20064;-78
2022/05/12 23:32:46;;;;;;;0.00;0.00;;;;;;;12.36;57.66;101752.41;10498083;28;20045;-78
2022/05/12 23:37:49;;;;;;;0.00;0.00;;;;;;;12.05;58.92;101753.97;10482473;28;20098;-77
2022/05/12 23:42:51;;;;;;;0.00;0.00;;;;;;;12.01;59.41;101749.56;10496921;28;20381;-77
2022/05/12 23:47:53;;;;;;;0.00;0.00;;;;;;;12.02;58.92;101751.31;10497981;28;20067;-77
2022/05/12 23:52:55;;;;;;;0.40;0.40;;;;;;;12.06;58.47;101758.31;10497103;28;20419;-77
2022/05/12 23:57:56;;;;;;;0.00;0.00;;;;;;;12.14;57.85;101744.78;10488431;28;20110;-77
